createdAt,value
2018-11-12T00:02:15.793Z,12.40
2018-11-12T00:04:50.138Z,12.40
2018-11-12T00:07:26.459Z,12.40
2018-11-12T00:10:02.020Z,12.40
2018-11-12T00:12:37.764Z,12.40
2018-11-12T00:15:12.711Z,12.40
2018-11-12T00:17:48.145Z,12.40
2018-11-12T00:20:24.273Z,12.50
2018-11-12T00:22:58.937Z,12.40
2018-11-12T00:25:34.918Z,12.50
2018-11-12T00:28:10.411Z,12.50
2018-11-12T00:30:45.606Z,12.50
2018-11-12T00:33:20.236Z,12.50
2018-11-12T00:35:55.161Z,12.50
2018-11-12T00:38:29.618Z,12.50
2018-11-12T00:41:04.366Z,12.50
2018-11-12T00:43:39.886Z,12.60
2018-11-12T00:46:15.495Z,12.60
2018-11-12T00:48:50.110Z,12.60
2018-11-12T00:51:24.576Z,12.60
2018-11-12T00:57:02.195Z,12.60
2018-11-12T00:59:36.918Z,12.60
2018-11-12T01:04:59.385Z,12.60
2018-11-12T01:07:35.108Z,12.70
2018-11-12T01:10:12.739Z,12.70
2018-11-12T01:12:48.161Z,12.70
2018-11-12T01:15:25.264Z,12.70
2018-11-12T01:18:01.509Z,12.70
2018-11-12T01:20:36.469Z,12.70
2018-11-12T01:23:12.583Z,12.70
2018-11-12T01:25:47.416Z,12.70
2018-11-12T01:28:23.504Z,12.70
2018-11-12T01:31:07.828Z,12.70
2018-11-12T01:33:44.517Z,12.70
2018-11-12T01:36:20.052Z,12.70
2018-11-12T01:38:56.351Z,12.80
2018-11-12T01:41:31.359Z,12.80
2018-11-12T01:44:07.214Z,12.80
2018-11-12T01:46:41.826Z,12.70
2018-11-12T01:49:17.245Z,12.80
2018-11-12T01:51:51.942Z,12.80
2018-11-12T01:54:26.859Z,12.80
2018-11-12T01:57:01.970Z,12.80
2018-11-12T02:02:20.980Z,12.90
2018-11-12T02:04:56.715Z,12.90
2018-11-12T02:07:31.653Z,12.90
2018-11-12T02:10:06.927Z,13.00
2018-11-12T02:12:42.223Z,12.90
2018-11-12T02:15:18.069Z,13.00
2018-11-12T02:17:53.178Z,13.00
2018-11-12T02:20:28.603Z,13.00
2018-11-12T02:23:03.379Z,13.00
2018-11-12T02:25:38.087Z,13.10
2018-11-12T02:28:12.816Z,13.10
2018-11-12T02:30:48.924Z,13.10
2018-11-12T02:33:24.887Z,13.10
2018-11-12T02:36:00.557Z,13.10
2018-11-12T02:38:36.604Z,13.10
2018-11-12T02:41:11.291Z,13.10
2018-11-12T02:43:47.380Z,13.10
2018-11-12T02:46:22.287Z,13.00
2018-11-12T02:48:56.688Z,13.10
2018-11-12T02:51:32.717Z,13.10
2018-11-12T02:54:07.434Z,13.10
2018-11-12T02:56:42.278Z,13.10
2018-11-12T02:59:17.009Z,13.10
2018-11-12T03:01:53.007Z,13.10
2018-11-12T03:04:27.763Z,13.10
2018-11-12T03:07:02.796Z,13.20
2018-11-12T03:09:38.576Z,13.20
2018-11-12T03:12:14.602Z,13.20
2018-11-12T03:14:49.266Z,13.20
2018-11-12T03:17:23.644Z,13.20
2018-11-12T03:19:58.958Z,13.20
2018-11-12T03:22:33.757Z,13.20
2018-11-12T03:25:11.606Z,13.20
2018-11-12T03:27:46.695Z,13.20
2018-11-12T03:30:22.201Z,13.20
2018-11-12T03:32:57.734Z,13.20
2018-11-12T03:35:32.434Z,13.20
2018-11-12T03:38:08.086Z,13.20
2018-11-12T03:40:43.542Z,13.20
2018-11-12T03:43:19.140Z,13.20
2018-11-12T03:45:53.894Z,13.20
2018-11-12T03:48:28.956Z,13.20
2018-11-12T03:51:04.031Z,13.20
2018-11-12T03:53:37.978Z,13.20
2018-11-12T03:56:12.933Z,13.20
2018-11-12T03:58:48.147Z,13.20
2018-11-12T04:04:05.009Z,13.20
2018-11-12T04:06:41.257Z,13.20
2018-11-12T04:09:16.304Z,13.20
2018-11-12T04:11:52.064Z,13.20
2018-11-12T04:14:27.224Z,13.20
2018-11-12T04:17:02.994Z,13.20
2018-11-12T04:22:28.438Z,13.20
2018-11-12T04:25:03.777Z,13.20
2018-11-12T04:27:39.572Z,13.20
2018-11-12T04:32:52.936Z,13.20
2018-11-12T04:35:28.619Z,13.30
2018-11-12T04:38:03.276Z,13.30
2018-11-12T04:40:37.943Z,13.30
2018-11-12T04:48:37.808Z,13.40
2018-11-12T04:51:13.514Z,13.40
2018-11-12T04:53:48.549Z,13.40
2018-11-12T04:56:24.642Z,13.40
2018-11-12T04:58:59.669Z,13.40
2018-11-12T05:01:35.410Z,13.40
2018-11-12T05:06:53.807Z,13.40
2018-11-12T05:09:28.819Z,13.40
2018-11-12T05:12:04.122Z,13.50
2018-11-12T05:14:39.772Z,13.50
2018-11-12T05:17:14.452Z,13.50
2018-11-12T05:19:49.135Z,13.50
2018-11-12T05:22:23.905Z,13.50
2018-11-12T05:24:59.655Z,13.50
2018-11-12T05:27:34.379Z,13.50
2018-11-12T05:30:15.558Z,13.50
2018-11-12T05:32:50.572Z,13.40
2018-11-12T05:35:25.854Z,13.40
2018-11-12T05:40:44.288Z,13.40
2018-11-12T05:43:19.088Z,13.40
2018-11-12T05:45:54.872Z,13.50
2018-11-12T05:48:30.131Z,13.50
2018-11-12T05:51:05.109Z,13.50
2018-11-12T05:53:40.276Z,13.50
2018-11-12T05:56:14.903Z,13.50
2018-11-12T05:58:50.549Z,13.50
2018-11-12T06:01:26.022Z,13.60
2018-11-12T06:04:01.402Z,13.60
2018-11-12T06:06:36.523Z,13.60
2018-11-12T06:09:12.820Z,13.70
2018-11-12T06:11:48.385Z,13.60
2018-11-12T06:14:23.636Z,13.70
2018-11-12T06:16:58.572Z,13.70
2018-11-12T06:19:34.390Z,13.70
2018-11-12T06:22:10.383Z,13.80
2018-11-12T06:24:46.201Z,13.80
2018-11-12T06:27:20.871Z,13.80
2018-11-12T06:29:55.258Z,13.70
2018-11-12T06:32:30.437Z,13.70
2018-11-12T06:35:05.737Z,13.70
2018-11-12T06:37:41.323Z,13.70
2018-11-12T06:40:17.470Z,13.70
2018-11-12T06:42:51.887Z,13.70
2018-11-12T06:45:26.941Z,13.70
2018-11-12T06:48:02.140Z,13.70
2018-11-12T06:50:37.274Z,13.70
2018-11-12T06:53:12.876Z,13.70
2018-11-12T06:55:47.578Z,13.70
2018-11-12T06:58:23.418Z,13.70
2018-11-12T07:00:58.803Z,13.80
2018-11-12T07:03:33.084Z,13.80
2018-11-12T07:06:08.350Z,13.80
2018-11-12T07:08:43.791Z,13.90
2018-11-12T07:11:19.016Z,13.80
2018-11-12T07:13:54.591Z,13.90
2018-11-12T07:16:32.593Z,14.00
2018-11-12T07:19:07.763Z,14.00
2018-11-12T07:21:42.312Z,14.10
2018-11-12T07:29:40.802Z,14.30
2018-11-12T07:32:15.474Z,14.30
2018-11-12T07:37:32.169Z,14.50
2018-11-12T07:40:07.858Z,14.60
2018-11-12T07:42:44.264Z,14.80
2018-11-12T07:48:06.916Z,14.90
2018-11-12T07:50:42.452Z,15.00
2018-11-12T07:53:18.592Z,15.20
2018-11-12T07:58:39.378Z,15.30
2018-11-12T08:01:14.828Z,15.40
2018-11-12T08:03:49.293Z,15.50
2018-11-12T08:09:06.361Z,15.70
2018-11-12T08:11:42.949Z,15.80
2018-11-12T08:14:17.915Z,16.00
2018-11-12T08:16:52.710Z,16.10
2018-11-12T08:19:28.317Z,16.30
2018-11-12T08:22:04.677Z,16.70
2018-11-12T08:24:40.627Z,16.70
2018-11-12T08:27:14.904Z,16.80
2018-11-12T08:29:49.614Z,16.90
2018-11-12T08:32:25.049Z,16.90
2018-11-12T08:35:01.004Z,16.80
2018-11-12T08:37:37.052Z,16.80
2018-11-12T08:40:14.838Z,16.70
2018-11-12T08:42:50.171Z,16.70
2018-11-12T08:45:24.588Z,16.70
2018-11-12T08:47:59.570Z,16.70
2018-11-12T08:50:34.281Z,16.60
2018-11-12T08:53:10.092Z,16.60
2018-11-12T08:55:44.847Z,16.60
2018-11-12T08:58:21.212Z,16.60
2018-11-12T09:00:56.556Z,16.70
2018-11-12T09:03:31.122Z,16.70
2018-11-12T09:06:06.705Z,16.80
2018-11-12T09:11:23.664Z,16.80
2018-11-12T09:13:58.398Z,16.80
2018-11-12T09:16:34.013Z,16.80
2018-11-12T09:19:08.982Z,17.10
2018-11-12T09:21:43.812Z,17.60
2018-11-12T09:24:19.095Z,17.90
2018-11-12T09:26:54.855Z,18.00
2018-11-12T09:35:30.895Z,18.00
2018-11-12T09:38:05.403Z,18.00
2018-11-12T09:40:40.301Z,18.10
2018-11-12T09:43:15.395Z,18.90
2018-11-12T09:45:51.268Z,18.90
2018-11-12T09:48:26.511Z,19.60
2018-11-12T09:51:01.448Z,20.30
2018-11-12T09:59:10.937Z,21.10
2018-11-12T10:01:46.935Z,21.30
2018-11-12T10:04:23.335Z,21.60
2018-11-12T10:06:57.654Z,22.10
2018-11-12T10:09:33.332Z,22.60
2018-11-12T10:17:40.382Z,23.30
2018-11-12T10:20:12.975Z,23.30
2018-11-12T10:28:16.255Z,24.50
2018-11-12T10:30:51.817Z,25.40
2018-11-12T10:33:26.880Z,25.40
2018-11-12T10:38:55.016Z,26.80
2018-11-12T10:41:29.494Z,26.70
2018-11-12T10:44:04.490Z,27.10
2018-11-12T10:49:26.419Z,27.60
2018-11-12T10:52:02.252Z,27.90
2018-11-12T10:57:25.700Z,28.90
2018-11-12T11:00:00.387Z,28.80
2018-11-12T11:08:23.793Z,29.00
2018-11-12T11:10:59.334Z,29.00
2018-11-12T11:13:35.133Z,28.90
2018-11-12T11:19:27.348Z,29.00
2018-11-12T11:22:01.982Z,28.80
2018-11-12T11:27:18.593Z,28.60
2018-11-12T11:29:53.922Z,28.50
2018-11-12T11:32:30.004Z,28.50
2018-11-12T11:37:51.744Z,28.50
2018-11-12T11:40:27.740Z,28.10
2018-11-12T11:43:02.326Z,28.00
2018-11-12T11:48:20.680Z,27.50
2018-11-12T11:50:57.346Z,27.40
2018-11-12T11:53:32.591Z,27.30
2018-11-12T11:58:53.284Z,27.00
2018-11-12T12:01:29.703Z,26.50
2018-11-12T12:04:04.442Z,26.00
2018-11-12T12:12:13.011Z,24.40
2018-11-12T12:17:29.649Z,23.60
2018-11-12T12:20:05.551Z,23.30
2018-11-12T12:22:41.480Z,22.90
2018-11-12T12:28:00.746Z,22.40
2018-11-12T12:30:36.435Z,22.30
2018-11-12T12:33:10.770Z,22.30
2018-11-12T12:38:37.702Z,22.40
2018-11-12T12:41:13.647Z,22.50
2018-11-12T12:43:49.099Z,22.50
2018-11-12T12:49:06.507Z,22.50
2018-11-12T12:51:41.378Z,22.80
2018-11-12T12:54:16.296Z,23.20
2018-11-12T12:59:34.297Z,24.90
2018-11-12T13:02:09.008Z,24.90
2018-11-12T13:07:32.974Z,26.10
2018-11-12T13:10:09.241Z,26.80
2018-11-12T13:12:44.060Z,27.30
2018-11-12T13:18:02.128Z,27.10
2018-11-12T13:20:37.322Z,26.90
2018-11-12T13:23:12.375Z,26.60
2018-11-12T13:28:29.804Z,25.60
2018-11-12T13:31:05.189Z,25.00
2018-11-12T13:33:39.822Z,24.50
2018-11-12T13:38:57.157Z,23.40
2018-11-12T13:41:32.722Z,23.00
2018-11-12T13:44:07.324Z,22.60
2018-11-12T13:49:38.131Z,22.10
2018-11-12T13:52:12.767Z,21.90
2018-11-12T13:57:29.496Z,21.40
2018-11-12T14:00:04.524Z,21.20
2018-11-12T14:02:39.796Z,21.00
2018-11-12T14:08:07.397Z,20.80
2018-11-12T14:10:43.182Z,20.70
2018-11-12T14:13:17.584Z,20.60
2018-11-12T14:18:34.626Z,20.40
2018-11-12T14:21:09.362Z,20.30
2018-11-12T14:23:43.928Z,20.10
2018-11-12T14:29:06.024Z,19.50
2018-11-12T14:31:41.523Z,18.90
2018-11-12T14:34:16.295Z,18.80
2018-11-12T14:39:42.916Z,18.30
2018-11-12T14:42:18.777Z,18.20
2018-11-12T14:47:36.674Z,17.90
2018-11-12T14:50:12.034Z,17.80
2018-11-12T14:52:50.214Z,17.80
2018-11-12T14:58:19.461Z,17.70
2018-11-12T15:00:54.776Z,17.60
2018-11-12T15:03:29.628Z,17.60
2018-11-12T15:08:53.821Z,17.50
2018-11-12T15:11:29.188Z,17.40
2018-11-12T15:14:04.356Z,17.50
2018-11-12T15:19:30.017Z,17.30
2018-11-12T15:27:52.659Z,17.30
2018-11-12T15:30:28.342Z,17.30
2018-11-12T15:33:02.795Z,17.30
2018-11-12T15:38:21.040Z,17.10
2018-11-12T15:43:38.552Z,17.00
2018-11-12T15:49:01.065Z,16.90
2018-11-12T15:51:35.669Z,16.80
2018-11-12T15:54:12.198Z,16.80
2018-11-12T15:59:29.276Z,16.70
2018-11-12T16:02:03.611Z,16.70
2018-11-12T16:07:33.646Z,16.60
2018-11-12T16:10:11.555Z,16.60
2018-11-12T16:12:46.356Z,16.60
2018-11-12T16:15:21.654Z,16.60
2018-11-12T16:20:41.517Z,16.50
2018-11-12T16:23:15.999Z,16.40
2018-11-12T16:28:33.436Z,16.40
2018-11-12T16:31:09.484Z,16.30
2018-11-12T16:33:44.687Z,16.30
2018-11-12T16:39:10.708Z,16.30
2018-11-12T16:41:45.592Z,16.20
2018-11-12T16:44:20.313Z,16.20
2018-11-12T16:49:37.968Z,16.00
2018-11-12T16:52:12.746Z,16.00
2018-11-12T16:57:29.827Z,15.90
2018-11-12T17:00:04.472Z,15.90
2018-11-12T17:02:39.140Z,15.80
2018-11-12T17:07:59.449Z,15.60
2018-11-12T17:10:34.434Z,15.60
2018-11-12T17:13:08.872Z,15.60
2018-11-12T17:18:35.265Z,15.50
2018-11-12T17:21:09.686Z,15.40
2018-11-12T17:23:44.232Z,15.40
2018-11-12T17:29:08.126Z,15.30
2018-11-12T17:31:42.906Z,15.20
2018-11-12T17:34:18.324Z,15.20
2018-11-12T17:39:40.273Z,15.00
2018-11-12T17:42:15.183Z,15.00
2018-11-12T17:47:33.544Z,14.90
2018-11-12T17:50:09.890Z,14.90
2018-11-12T17:52:44.596Z,14.90
2018-11-12T17:58:01.658Z,14.90
2018-11-12T18:03:19.963Z,14.80
2018-11-12T18:05:54.293Z,14.80
2018-11-12T18:11:25.021Z,14.70
2018-11-12T18:13:59.842Z,14.70
2018-11-12T18:19:24.417Z,14.70
2018-11-12T18:21:59.090Z,14.70
2018-11-12T18:27:17.216Z,14.70
2018-11-12T18:29:54.054Z,14.60
2018-11-12T18:32:29.069Z,14.60
2018-11-12T18:37:47.262Z,14.60
2018-11-12T18:40:23.989Z,14.50
2018-11-12T18:42:59.135Z,14.50
2018-11-12T18:48:15.758Z,14.50
2018-11-12T18:50:50.619Z,14.50
2018-11-12T18:53:25.706Z,14.40
2018-11-12T18:58:42.675Z,14.40
2018-11-12T19:01:17.732Z,14.40
2018-11-12T19:03:52.761Z,14.40
2018-11-12T19:09:12.754Z,14.30
2018-11-12T19:11:47.187Z,14.30
2018-11-12T19:14:22.377Z,14.30
2018-11-12T19:19:39.864Z,14.20
2018-11-12T19:22:15.367Z,14.20
2018-11-12T19:27:34.265Z,14.20
2018-11-12T19:30:20.941Z,14.20
2018-11-12T19:32:55.378Z,14.10
2018-11-12T19:38:16.525Z,14.20
2018-11-12T19:40:52.174Z,14.10
2018-11-12T19:43:27.195Z,14.10
2018-11-12T19:48:43.996Z,14.20
2018-11-12T19:51:19.316Z,14.20
2018-11-12T19:53:55.361Z,14.20
2018-11-12T19:59:12.116Z,14.20
2018-11-12T20:01:47.427Z,14.20
2018-11-12T20:04:22.342Z,14.20
2018-11-12T20:09:40.554Z,14.20
2018-11-12T20:12:14.809Z,14.20
2018-11-12T20:17:33.955Z,14.10
2018-11-12T20:20:16.471Z,14.10
2018-11-12T20:22:51.579Z,14.00
2018-11-12T20:28:10.066Z,14.00
2018-11-12T20:30:44.633Z,14.00
2018-11-12T20:33:19.466Z,14.00
2018-11-12T20:38:41.855Z,14.00
2018-11-12T20:41:16.537Z,14.00
2018-11-12T20:43:51.376Z,14.00
2018-11-12T20:49:17.645Z,14.10
2018-11-12T20:51:51.792Z,14.10
2018-11-12T20:54:26.379Z,14.10
2018-11-12T20:59:43.757Z,14.10
2018-11-12T21:02:19.688Z,14.10
2018-11-12T21:07:45.698Z,14.10
2018-11-12T21:10:21.282Z,14.10
2018-11-12T21:12:56.139Z,14.10
2018-11-12T21:18:14.055Z,14.00
2018-11-12T21:23:40.009Z,14.00
2018-11-12T21:26:15.024Z,14.00
2018-11-12T21:28:50.787Z,13.90
2018-11-12T21:34:06.963Z,13.90
2018-11-12T21:39:25.167Z,13.90
2018-11-12T21:42:00.347Z,13.90
2018-11-12T21:47:39.266Z,14.00
2018-11-12T21:50:16.439Z,13.90
2018-11-12T21:58:27.605Z,14.00
2018-11-12T22:01:02.635Z,14.00
2018-11-12T22:09:20.164Z,14.00
2018-11-12T22:11:54.475Z,13.90
2018-11-12T22:20:07.640Z,13.90
2018-11-12T22:22:43.514Z,13.90
2018-11-12T22:30:53.936Z,13.80
2018-11-12T22:33:28.666Z,13.80
2018-11-12T22:41:39.483Z,13.90
2018-11-12T22:44:14.944Z,13.90
2018-11-12T22:52:33.755Z,14.00
2018-11-12T22:57:51.547Z,14.00
2018-11-12T23:00:31.209Z,14.00
2018-11-12T23:09:19.385Z,14.00
2018-11-12T23:11:53.733Z,14.00
2018-11-12T23:20:17.655Z,13.90
2018-11-12T23:22:53.418Z,14.00
2018-11-12T23:31:07.586Z,13.90
2018-11-12T23:33:42.352Z,13.90
2018-11-12T23:41:55.312Z,13.80
2018-11-12T23:44:29.666Z,13.80
2018-11-12T23:52:42.259Z,13.70
2018-11-12T23:58:03.467Z,13.70
